sensor_id;sensor_type;location;lat;lon;timestamp;temperature;humidity
2577;DHT22;1298;51.252;6.802;2023-08-01T00:01:56;17.60;99.90
2577;DHT22;1298;51.252;6.802;2023-08-01T00:04:42;17.60;99.90
2577;DHT22;1298;51.252;6.802;2023-08-01T00:07:28;17.60;99.90
2577;DHT22;1298;51.252;6.802;2023-08-01T00:10:15;17.60;99.90
2577;DHT22;1298;51.252;6.802;2023-08-01T00:13:00;17.60;99.90
2577;DHT22;1298;51.252;6.802;2023-08-01T00:15:45;17.60;99.90
2577;DHT22;1298;51.252;6.802;2023-08-01T00:18:31;17.60;99.90
2577;DHT22;1298;51.252;6.802;2023-08-01T00:21:17;17.70;99.90
2577;DHT22;1298;51.252;6.802;2023-08-01T00:24:03;17.70;99.90
2577;DHT22;1298;51.252;6.802;2023-08-01T00:26:50;17.60;99.90
2577;DHT22;1298;51.252;6.802;2023-08-01T00:29:39;17.60;99.90
2577;DHT22;1298;51.252;6.802;2023-08-01T00:32:25;17.50;99.90
2577;DHT22;1298;51.252;6.802;2023-08-01T00:35:10;17.60;99.90
2577;DHT22;1298;51.252;6.802;2023-08-01T00:37:56;17.50;99.90
2577;DHT22;1298;51.252;6.802;2023-08-01T00:40:42;17.50;99.90
2577;DHT22;1298;51.252;6.802;2023-08-01T00:43:28;17.50;99.90
2577;DHT22;1298;51.252;6.802;2023-08-01T00:46:14;17.60;99.90
2577;DHT22;1298;51.252;6.802;2023-08-01T00:49:00;17.50;99.90
2577;DHT22;1298;51.252;6.802;2023-08-01T00:51:45;17.40;99.90
2577;DHT22;1298;51.252;6.802;2023-08-01T00:54:31;17.40;99.90
2577;DHT22;1298;51.252;6.802;2023-08-01T00:57:20;17.30;99.90
2577;DHT22;1298;51.252;6.802;2023-08-01T01:00:09;17.30;99.90
2577;DHT22;1298;51.252;6.802;2023-08-01T01:02:55;17.20;99.90
2577;DHT22;1298;51.252;6.802;2023-08-01T01:05:46;17.20;99.90
2577;DHT22;1298;51.252;6.802;2023-08-01T01:08:33;17.20;99.90
2577;DHT22;1298;51.252;6.802;2023-08-01T01:11:19;17.30;99.90
2577;DHT22;1298;51.252;6.802;2023-08-01T01:14:04;17.30;99.90
2577;DHT22;1298;51.252;6.802;2023-08-01T01:16:51;17.30;99.90
2577;DHT22;1298;51.252;6.802;2023-08-01T01:19:37;17.30;99.90
2577;DHT22;1298;51.252;6.802;2023-08-01T01:22:24;17.30;99.90
2577;DHT22;1298;51.252;6.802;2023-08-01T01:25:11;17.30;99.90
2577;DHT22;1298;51.252;6.802;2023-08-01T01:27:57;17.30;99.90
2577;DHT22;1298;51.252;6.802;2023-08-01T01:30:43;17.30;99.90
2577;DHT22;1298;51.252;6.802;2023-08-01T01:33:30;17.30;99.90
2577;DHT22;1298;51.252;6.802;2023-08-01T01:36:15;17.30;99.90
2577;DHT22;1298;51.252;6.802;2023-08-01T01:39:02;17.30;99.90
2577;DHT22;1298;51.252;6.802;2023-08-01T01:41:48;17.30;99.90
2577;DHT22;1298;51.252;6.802;2023-08-01T01:44:33;17.30;99.90
2577;DHT22;1298;51.252;6.802;2023-08-01T01:47:19;17.30;99.90
2577;DHT22;1298;51.252;6.802;2023-08-01T01:50:06;17.30;99.90
2577;DHT22;1298;51.252;6.802;2023-08-01T01:52:52;17.30;99.90
2577;DHT22;1298;51.252;6.802;2023-08-01T01:55:39;17.30;99.90
2577;DHT22;1298;51.252;6.802;2023-08-01T01:58:25;17.30;99.90
2577;DHT22;1298;51.252;6.802;2023-08-01T02:01:11;17.30;99.90
2577;DHT22;1298;51.252;6.802;2023-08-01T02:03:57;17.30;99.90
2577;DHT22;1298;51.252;6.802;2023-08-01T02:06:42;17.30;99.90
2577;DHT22;1298;51.252;6.802;2023-08-01T02:09:28;17.00;99.90
2577;DHT22;1298;51.252;6.802;2023-08-01T02:12:15;16.90;99.90
2577;DHT22;1298;51.252;6.802;2023-08-01T02:15:00;16.80;99.90
2577;DHT22;1298;51.252;6.802;2023-08-01T02:17:46;16.70;99.90
2577;DHT22;1298;51.252;6.802;2023-08-01T02:20:31;16.80;99.90
2577;DHT22;1298;51.252;6.802;2023-08-01T02:23:17;16.80;99.90
2577;DHT22;1298;51.252;6.802;2023-08-01T02:26:03;16.80;99.90
2577;DHT22;1298;51.252;6.802;2023-08-01T02:28:50;16.80;99.90
2577;DHT22;1298;51.252;6.802;2023-08-01T02:31:35;16.80;99.90
2577;DHT22;1298;51.252;6.802;2023-08-01T02:34:21;16.80;99.90
2577;DHT22;1298;51.252;6.802;2023-08-01T02:37:06;16.80;99.90
2577;DHT22;1298;51.252;6.802;2023-08-01T02:39:52;16.70;99.90
2577;DHT22;1298;51.252;6.802;2023-08-01T02:42:37;16.70;99.90
2577;DHT22;1298;51.252;6.802;2023-08-01T02:45:24;16.60;99.90
2577;DHT22;1298;51.252;6.802;2023-08-01T02:48:10;16.50;99.90
2577;DHT22;1298;51.252;6.802;2023-08-01T02:50:56;16.30;99.90
2577;DHT22;1298;51.252;6.802;2023-08-01T02:53:41;16.30;99.90
2577;DHT22;1298;51.252;6.802;2023-08-01T02:56:27;16.20;99.90
2577;DHT22;1298;51.252;6.802;2023-08-01T02:59:12;16.20;99.90
2577;DHT22;1298;51.252;6.802;2023-08-01T03:01:59;16.20;99.90
2577;DHT22;1298;51.252;6.802;2023-08-01T03:04:45;16.20;99.90
2577;DHT22;1298;51.252;6.802;2023-08-01T03:07:31;16.20;99.90
2577;DHT22;1298;51.252;6.802;2023-08-01T03:10:16;16.20;99.90
2577;DHT22;1298;51.252;6.802;2023-08-01T03:13:02;16.10;99.90
2577;DHT22;1298;51.252;6.802;2023-08-01T03:15:47;16.20;99.90
2577;DHT22;1298;51.252;6.802;2023-08-01T03:18:34;16.10;99.90
2577;DHT22;1298;51.252;6.802;2023-08-01T03:21:20;16.10;99.90
2577;DHT22;1298;51.252;6.802;2023-08-01T03:24:05;16.00;99.90
2577;DHT22;1298;51.252;6.802;2023-08-01T03:26:52;16.00;99.90
2577;DHT22;1298;51.252;6.802;2023-08-01T03:29:38;16.00;99.90
2577;DHT22;1298;51.252;6.802;2023-08-01T03:32:23;16.00;99.90
2577;DHT22;1298;51.252;6.802;2023-08-01T03:35:10;16.00;99.90
2577;DHT22;1298;51.252;6.802;2023-08-01T03:37:57;16.00;99.90
2577;DHT22;1298;51.252;6.802;2023-08-01T03:40:43;16.00;99.90
2577;DHT22;1298;51.252;6.802;2023-08-01T03:43:29;16.00;99.90
2577;DHT22;1298;51.252;6.802;2023-08-01T03:46:15;16.00;99.90
2577;DHT22;1298;51.252;6.802;2023-08-01T03:49:00;15.90;99.90
2577;DHT22;1298;51.252;6.802;2023-08-01T03:51:47;15.90;99.90
2577;DHT22;1298;51.252;6.802;2023-08-01T03:54:32;15.90;99.90
2577;DHT22;1298;51.252;6.802;2023-08-01T03:57:18;15.90;99.90
2577;DHT22;1298;51.252;6.802;2023-08-01T04:00:05;15.90;99.90
2577;DHT22;1298;51.252;6.802;2023-08-01T04:02:57;15.90;99.90
2577;DHT22;1298;51.252;6.802;2023-08-01T04:05:43;15.90;99.90
2577;DHT22;1298;51.252;6.802;2023-08-01T04:08:29;15.90;99.90
2577;DHT22;1298;51.252;6.802;2023-08-01T04:11:15;15.90;99.90
2577;DHT22;1298;51.252;6.802;2023-08-01T04:14:01;15.80;99.90
2577;DHT22;1298;51.252;6.802;2023-08-01T04:16:46;15.80;99.90
2577;DHT22;1298;51.252;6.802;2023-08-01T04:19:32;15.80;99.90
2577;DHT22;1298;51.252;6.802;2023-08-01T04:22:17;15.80;99.90
2577;DHT22;1298;51.252;6.802;2023-08-01T04:25:05;15.80;99.90
2577;DHT22;1298;51.252;6.802;2023-08-01T04:27:51;15.80;99.90
2577;DHT22;1298;51.252;6.802;2023-08-01T04:30:37;15.80;99.90
2577;DHT22;1298;51.252;6.802;2023-08-01T04:33:22;15.80;99.90
2577;DHT22;1298;51.252;6.802;2023-08-01T04:36:08;15.80;99.90
2577;DHT22;1298;51.252;6.802;2023-08-01T04:38:54;15.80;99.90
2577;DHT22;1298;51.252;6.802;2023-08-01T04:41:41;15.80;99.90
2577;DHT22;1298;51.252;6.802;2023-08-01T04:44:26;15.90;99.90
2577;DHT22;1298;51.252;6.802;2023-08-01T04:47:14;15.80;99.90
2577;DHT22;1298;51.252;6.802;2023-08-01T04:49:59;15.90;99.90
2577;DHT22;1298;51.252;6.802;2023-08-01T04:52:45;15.90;99.90
2577;DHT22;1298;51.252;6.802;2023-08-01T04:55:31;15.90;99.90
2577;DHT22;1298;51.252;6.802;2023-08-01T04:58:18;15.90;99.90
2577;DHT22;1298;51.252;6.802;2023-08-01T05:01:03;15.90;99.90
2577;DHT22;1298;51.252;6.802;2023-08-01T05:03:49;15.90;99.90
2577;DHT22;1298;51.252;6.802;2023-08-01T05:06:34;15.90;99.90
2577;DHT22;1298;51.252;6.802;2023-08-01T05:09:20;15.90;99.90
2577;DHT22;1298;51.252;6.802;2023-08-01T05:12:07;15.80;99.90
2577;DHT22;1298;51.252;6.802;2023-08-01T05:14:54;15.80;99.90
2577;DHT22;1298;51.252;6.802;2023-08-01T05:17:39;15.90;99.90
2577;DHT22;1298;51.252;6.802;2023-08-01T05:20:25;15.90;99.90
2577;DHT22;1298;51.252;6.802;2023-08-01T05:23:14;16.00;99.90
2577;DHT22;1298;51.252;6.802;2023-08-01T05:26:00;16.00;99.90
2577;DHT22;1298;51.252;6.802;2023-08-01T05:28:45;16.10;99.90
2577;DHT22;1298;51.252;6.802;2023-08-01T05:31:32;16.10;99.90
2577;DHT22;1298;51.252;6.802;2023-08-01T05:34:18;16.10;99.90
2577;DHT22;1298;51.252;6.802;2023-08-01T05:37:04;16.10;99.90
2577;DHT22;1298;51.252;6.802;2023-08-01T05:39:50;16.20;99.90
2577;DHT22;1298;51.252;6.802;2023-08-01T05:42:35;16.20;99.90
2577;DHT22;1298;51.252;6.802;2023-08-01T05:45:21;16.20;99.90
2577;DHT22;1298;51.252;6.802;2023-08-01T05:48:07;16.20;99.90
2577;DHT22;1298;51.252;6.802;2023-08-01T05:50:53;16.20;99.90
2577;DHT22;1298;51.252;6.802;2023-08-01T05:53:40;16.30;99.90
2577;DHT22;1298;51.252;6.802;2023-08-01T05:56:26;16.30;99.90
2577;DHT22;1298;51.252;6.802;2023-08-01T05:59:12;16.30;99.90
2577;DHT22;1298;51.252;6.802;2023-08-01T06:01:57;16.30;99.90
2577;DHT22;1298;51.252;6.802;2023-08-01T06:04:44;16.30;99.90
2577;DHT22;1298;51.252;6.802;2023-08-01T06:07:30;16.30;99.90
2577;DHT22;1298;51.252;6.802;2023-08-01T06:10:16;16.30;99.90
2577;DHT22;1298;51.252;6.802;2023-08-01T06:13:01;16.30;99.90
2577;DHT22;1298;51.252;6.802;2023-08-01T06:15:47;16.30;99.90
2577;DHT22;1298;51.252;6.802;2023-08-01T06:18:33;16.30;99.90
2577;DHT22;1298;51.252;6.802;2023-08-01T06:21:20;16.40;99.90
2577;DHT22;1298;51.252;6.802;2023-08-01T06:24:05;16.40;99.90
2577;DHT22;1298;51.252;6.802;2023-08-01T06:26:52;16.40;99.90
2577;DHT22;1298;51.252;6.802;2023-08-01T06:29:37;16.50;99.90
2577;DHT22;1298;51.252;6.802;2023-08-01T06:32:23;16.50;99.90
2577;DHT22;1298;51.252;6.802;2023-08-01T06:35:08;16.60;99.90
2577;DHT22;1298;51.252;6.802;2023-08-01T06:37:55;16.70;99.90
2577;DHT22;1298;51.252;6.802;2023-08-01T06:40:41;16.80;99.90
2577;DHT22;1298;51.252;6.802;2023-08-01T06:43:26;16.90;99.90
2577;DHT22;1298;51.252;6.802;2023-08-01T06:46:12;16.90;99.90
2577;DHT22;1298;51.252;6.802;2023-08-01T06:48:57;16.90;99.90
2577;DHT22;1298;51.252;6.802;2023-08-01T06:51:43;16.90;99.90
2577;DHT22;1298;51.252;6.802;2023-08-01T06:54:31;16.90;99.90
2577;DHT22;1298;51.252;6.802;2023-08-01T06:57:17;16.90;99.90
2577;DHT22;1298;51.252;6.802;2023-08-01T07:00:03;17.00;99.90
2577;DHT22;1298;51.252;6.802;2023-08-01T07:02:48;17.10;99.90
2577;DHT22;1298;51.252;6.802;2023-08-01T07:05:34;17.20;99.90
2577;DHT22;1298;51.252;6.802;2023-08-01T07:08:20;17.20;99.90
2577;DHT22;1298;51.252;6.802;2023-08-01T07:11:07;17.40;99.90
2577;DHT22;1298;51.252;6.802;2023-08-01T07:13:52;17.40;99.90
2577;DHT22;1298;51.252;6.802;2023-08-01T07:16:38;17.50;99.90
2577;DHT22;1298;51.252;6.802;2023-08-01T07:19:24;17.60;99.90
2577;DHT22;1298;51.252;6.802;2023-08-01T07:22:09;17.70;99.90
2577;DHT22;1298;51.252;6.802;2023-08-01T07:24:55;17.60;99.90
2577;DHT22;1298;51.252;6.802;2023-08-01T07:27:42;17.60;99.90
2577;DHT22;1298;51.252;6.802;2023-08-01T07:30:27;17.60;99.90
2577;DHT22;1298;51.252;6.802;2023-08-01T07:33:13;17.50;99.90
2577;DHT22;1298;51.252;6.802;2023-08-01T07:35:59;17.60;99.90
2577;DHT22;1298;51.252;6.802;2023-08-01T07:38:45;17.50;99.90
2577;DHT22;1298;51.252;6.802;2023-08-01T07:41:31;17.50;99.90
2577;DHT22;1298;51.252;6.802;2023-08-01T07:44:18;17.50;99.90
2577;DHT22;1298;51.252;6.802;2023-08-01T07:47:04;17.50;99.90
2577;DHT22;1298;51.252;6.802;2023-08-01T07:49:51;17.60;99.90
2577;DHT22;1298;51.252;6.802;2023-08-01T07:52:36;17.90;99.90
2577;DHT22;1298;51.252;6.802;2023-08-01T07:55:22;18.00;99.90
2577;DHT22;1298;51.252;6.802;2023-08-01T07:58:07;17.90;99.90
2577;DHT22;1298;51.252;6.802;2023-08-01T08:00:55;18.10;99.90
2577;DHT22;1298;51.252;6.802;2023-08-01T08:03:40;18.20;99.90
2577;DHT22;1298;51.252;6.802;2023-08-01T08:06:26;18.30;99.90
2577;DHT22;1298;51.252;6.802;2023-08-01T08:09:11;18.20;99.90
2577;DHT22;1298;51.252;6.802;2023-08-01T08:11:57;18.20;99.90
2577;DHT22;1298;51.252;6.802;2023-08-01T08:14:43;18.20;99.90
2577;DHT22;1298;51.252;6.802;2023-08-01T08:17:29;18.40;99.90
2577;DHT22;1298;51.252;6.802;2023-08-01T08:20:15;18.40;99.90
2577;DHT22;1298;51.252;6.802;2023-08-01T08:23:01;18.30;99.90
2577;DHT22;1298;51.252;6.802;2023-08-01T08:25:46;18.40;99.90
2577;DHT22;1298;51.252;6.802;2023-08-01T08:28:33;18.20;99.90
2577;DHT22;1298;51.252;6.802;2023-08-01T08:31:19;18.10;99.90
2577;DHT22;1298;51.252;6.802;2023-08-01T08:34:06;18.20;99.90
2577;DHT22;1298;51.252;6.802;2023-08-01T08:36:52;18.30;99.90
2577;DHT22;1298;51.252;6.802;2023-08-01T08:39:37;18.40;99.90
2577;DHT22;1298;51.252;6.802;2023-08-01T08:42:23;18.50;99.90
2577;DHT22;1298;51.252;6.802;2023-08-01T08:45:09;18.30;99.90
2577;DHT22;1298;51.252;6.802;2023-08-01T08:48:01;18.40;99.90
2577;DHT22;1298;51.252;6.802;2023-08-01T08:50:49;18.40;99.90
2577;DHT22;1298;51.252;6.802;2023-08-01T08:53:35;18.50;99.90
2577;DHT22;1298;51.252;6.802;2023-08-01T08:56:21;18.50;99.90
2577;DHT22;1298;51.252;6.802;2023-08-01T08:59:08;18.40;99.90
2577;DHT22;1298;51.252;6.802;2023-08-01T09:01:54;18.20;99.90
2577;DHT22;1298;51.252;6.802;2023-08-01T09:04:39;18.20;99.90
2577;DHT22;1298;51.252;6.802;2023-08-01T09:07:30;18.20;99.90
2577;DHT22;1298;51.252;6.802;2023-08-01T09:10:18;18.20;99.90
2577;DHT22;1298;51.252;6.802;2023-08-01T09:13:04;18.30;99.90
2577;DHT22;1298;51.252;6.802;2023-08-01T09:15:52;18.60;99.90
2577;DHT22;1298;51.252;6.802;2023-08-01T09:18:47;18.90;99.90
2577;DHT22;1298;51.252;6.802;2023-08-01T09:21:33;19.00;99.90
2577;DHT22;1298;51.252;6.802;2023-08-01T09:24:21;19.10;99.90
2577;DHT22;1298;51.252;6.802;2023-08-01T09:27:06;19.00;99.90
2577;DHT22;1298;51.252;6.802;2023-08-01T09:29:53;19.10;99.90
2577;DHT22;1298;51.252;6.802;2023-08-01T09:32:39;19.30;99.90
2577;DHT22;1298;51.252;6.802;2023-08-01T09:35:25;19.30;99.90
2577;DHT22;1298;51.252;6.802;2023-08-01T09:38:11;19.30;99.90
2577;DHT22;1298;51.252;6.802;2023-08-01T09:40:58;19.40;99.90
2577;DHT22;1298;51.252;6.802;2023-08-01T09:43:45;19.60;99.90
2577;DHT22;1298;51.252;6.802;2023-08-01T09:46:31;19.70;99.90
2577;DHT22;1298;51.252;6.802;2023-08-01T09:49:17;19.50;99.90
2577;DHT22;1298;51.252;6.802;2023-08-01T09:52:02;19.60;99.90
2577;DHT22;1298;51.252;6.802;2023-08-01T09:54:48;19.70;99.90
2577;DHT22;1298;51.252;6.802;2023-08-01T09:57:37;19.60;99.90
2577;DHT22;1298;51.252;6.802;2023-08-01T10:00:26;19.60;99.90
2577;DHT22;1298;51.252;6.802;2023-08-01T10:03:12;19.60;99.90
2577;DHT22;1298;51.252;6.802;2023-08-01T10:05:59;19.70;99.90
2577;DHT22;1298;51.252;6.802;2023-08-01T10:08:45;19.70;99.90
2577;DHT22;1298;51.252;6.802;2023-08-01T10:11:34;19.80;99.90
2577;DHT22;1298;51.252;6.802;2023-08-01T10:14:21;19.80;99.90
2577;DHT22;1298;51.252;6.802;2023-08-01T10:17:08;20.20;99.90
2577;DHT22;1298;51.252;6.802;2023-08-01T10:19:56;20.50;99.90
2577;DHT22;1298;51.252;6.802;2023-08-01T10:22:43;20.70;99.90
2577;DHT22;1298;51.252;6.802;2023-08-01T10:25:29;20.60;99.90
2577;DHT22;1298;51.252;6.802;2023-08-01T10:28:15;20.50;99.90
2577;DHT22;1298;51.252;6.802;2023-08-01T10:31:10;20.50;99.90
2577;DHT22;1298;51.252;6.802;2023-08-01T10:34:04;20.50;99.90
2577;DHT22;1298;51.252;6.802;2023-08-01T10:36:56;20.40;99.90
2577;DHT22;1298;51.252;6.802;2023-08-01T10:39:42;20.20;99.90
2577;DHT22;1298;51.252;6.802;2023-08-01T10:42:38;20.20;99.90
2577;DHT22;1298;51.252;6.802;2023-08-01T10:45:24;20.20;99.90
2577;DHT22;1298;51.252;6.802;2023-08-01T10:48:12;20.10;99.90
2577;DHT22;1298;51.252;6.802;2023-08-01T10:51:00;20.00;99.90
2577;DHT22;1298;51.252;6.802;2023-08-01T10:53:48;20.20;99.90
2577;DHT22;1298;51.252;6.802;2023-08-01T10:56:35;20.30;99.90
2577;DHT22;1298;51.252;6.802;2023-08-01T10:59:21;20.20;99.90
2577;DHT22;1298;51.252;6.802;2023-08-01T11:02:07;20.30;99.90
2577;DHT22;1298;51.252;6.802;2023-08-01T11:04:58;20.50;99.90
2577;DHT22;1298;51.252;6.802;2023-08-01T11:07:53;20.60;99.90
2577;DHT22;1298;51.252;6.802;2023-08-01T11:10:39;20.60;99.90
2577;DHT22;1298;51.252;6.802;2023-08-01T11:13:25;20.40;99.90
2577;DHT22;1298;51.252;6.802;2023-08-01T11:16:14;20.60;99.90
2577;DHT22;1298;51.252;6.802;2023-08-01T11:18:59;20.90;99.90
2577;DHT22;1298;51.252;6.802;2023-08-01T11:21:47;21.10;99.90
2577;DHT22;1298;51.252;6.802;2023-08-01T11:24:32;21.20;99.90
2577;DHT22;1298;51.252;6.802;2023-08-01T11:27:18;20.90;99.90
2577;DHT22;1298;51.252;6.802;2023-08-01T11:30:04;20.70;99.90
2577;DHT22;1298;51.252;6.802;2023-08-01T11:32:50;20.40;99.90
2577;DHT22;1298;51.252;6.802;2023-08-01T11:35:39;20.40;99.90
2577;DHT22;1298;51.252;6.802;2023-08-01T11:38:29;20.10;99.90
2577;DHT22;1298;51.252;6.802;2023-08-01T11:41:15;19.70;99.90
2577;DHT22;1298;51.252;6.802;2023-08-01T11:44:02;19.10;99.90
2577;DHT22;1298;51.252;6.802;2023-08-01T11:46:49;18.10;99.90
2577;DHT22;1298;51.252;6.802;2023-08-01T11:49:34;17.30;99.90
2577;DHT22;1298;51.252;6.802;2023-08-01T11:52:24;16.80;99.90
2577;DHT22;1298;51.252;6.802;2023-08-01T11:55:20;16.50;99.90
2577;DHT22;1298;51.252;6.802;2023-08-01T11:58:06;16.40;99.90
2577;DHT22;1298;51.252;6.802;2023-08-01T12:01:02;16.10;99.90
2577;DHT22;1298;51.252;6.802;2023-08-01T12:03:48;16.00;99.90
2577;DHT22;1298;51.252;6.802;2023-08-01T12:06:34;16.00;99.90
2577;DHT22;1298;51.252;6.802;2023-08-01T12:09:21;16.10;99.90
2577;DHT22;1298;51.252;6.802;2023-08-01T12:12:08;16.20;99.90
2577;DHT22;1298;51.252;6.802;2023-08-01T12:14:54;16.30;99.90
2577;DHT22;1298;51.252;6.802;2023-08-01T12:17:39;16.40;99.90
2577;DHT22;1298;51.252;6.802;2023-08-01T12:20:25;16.50;99.90
2577;DHT22;1298;51.252;6.802;2023-08-01T12:23:11;16.60;99.90
2577;DHT22;1298;51.252;6.802;2023-08-01T12:25:56;16.70;99.90
2577;DHT22;1298;51.252;6.802;2023-08-01T12:28:43;17.00;99.90
2577;DHT22;1298;51.252;6.802;2023-08-01T12:31:29;17.20;99.90
2577;DHT22;1298;51.252;6.802;2023-08-01T12:34:14;17.60;99.90
2577;DHT22;1298;51.252;6.802;2023-08-01T12:37:00;18.00;99.90
2577;DHT22;1298;51.252;6.802;2023-08-01T12:39:45;18.40;99.90
2577;DHT22;1298;51.252;6.802;2023-08-01T12:42:31;18.70;99.90
2577;DHT22;1298;51.252;6.802;2023-08-01T12:45:18;18.70;99.90
2577;DHT22;1298;51.252;6.802;2023-08-01T12:48:04;18.70;99.90
2577;DHT22;1298;51.252;6.802;2023-08-01T12:50:49;18.60;99.90
2577;DHT22;1298;51.252;6.802;2023-08-01T12:53:35;18.80;99.90
2577;DHT22;1298;51.252;6.802;2023-08-01T12:56:21;19.00;99.90
2577;DHT22;1298;51.252;6.802;2023-08-01T12:59:06;19.50;99.90
2577;DHT22;1298;51.252;6.802;2023-08-01T13:01:53;19.90;99.90
2577;DHT22;1298;51.252;6.802;2023-08-01T13:04:39;20.40;99.90
2577;DHT22;1298;51.252;6.802;2023-08-01T13:07:25;20.90;99.90
2577;DHT22;1298;51.252;6.802;2023-08-01T13:10:11;21.40;99.90
2577;DHT22;1298;51.252;6.802;2023-08-01T13:12:57;21.60;99.90
2577;DHT22;1298;51.252;6.802;2023-08-01T13:15:42;22.30;99.90
2577;DHT22;1298;51.252;6.802;2023-08-01T13:18:29;22.80;99.90
2577;DHT22;1298;51.252;6.802;2023-08-01T13:21:15;23.10;99.90
2577;DHT22;1298;51.252;6.802;2023-08-01T13:24:00;23.50;99.90
2577;DHT22;1298;51.252;6.802;2023-08-01T13:26:48;23.60;99.90
2577;DHT22;1298;51.252;6.802;2023-08-01T13:29:34;23.60;99.90
2577;DHT22;1298;51.252;6.802;2023-08-01T13:32:19;23.20;99.90
2577;DHT22;1298;51.252;6.802;2023-08-01T13:35:07;22.50;99.90
2577;DHT22;1298;51.252;6.802;2023-08-01T13:37:52;21.90;99.90
2577;DHT22;1298;51.252;6.802;2023-08-01T13:40:38;21.50;99.90
2577;DHT22;1298;51.252;6.802;2023-08-01T13:43:23;21.40;99.90
2577;DHT22;1298;51.252;6.802;2023-08-01T13:46:12;21.30;99.90
2577;DHT22;1298;51.252;6.802;2023-08-01T13:48:58;21.20;99.90
2577;DHT22;1298;51.252;6.802;2023-08-01T13:51:45;21.10;99.90
2577;DHT22;1298;51.252;6.802;2023-08-01T13:54:31;21.10;99.90
2577;DHT22;1298;51.252;6.802;2023-08-01T13:57:17;21.00;99.90
2577;DHT22;1298;51.252;6.802;2023-08-01T14:00:03;21.20;99.90
2577;DHT22;1298;51.252;6.802;2023-08-01T14:02:49;22.10;99.90
2577;DHT22;1298;51.252;6.802;2023-08-01T14:05:35;23.00;99.90
2577;DHT22;1298;51.252;6.802;2023-08-01T14:08:22;23.00;99.90
2577;DHT22;1298;51.252;6.802;2023-08-01T14:11:09;22.60;99.90
2577;DHT22;1298;51.252;6.802;2023-08-01T14:13:55;22.90;99.90
2577;DHT22;1298;51.252;6.802;2023-08-01T14:16:41;23.40;99.90
2577;DHT22;1298;51.252;6.802;2023-08-01T14:19:27;23.60;99.90
2577;DHT22;1298;51.252;6.802;2023-08-01T14:22:14;23.40;99.90
2577;DHT22;1298;51.252;6.802;2023-08-01T14:25:01;22.80;99.90
2577;DHT22;1298;51.252;6.802;2023-08-01T14:27:46;22.10;99.90
2577;DHT22;1298;51.252;6.802;2023-08-01T14:30:32;21.60;99.90
2577;DHT22;1298;51.252;6.802;2023-08-01T14:33:17;21.60;99.90
2577;DHT22;1298;51.252;6.802;2023-08-01T14:36:08;21.80;99.90
2577;DHT22;1298;51.252;6.802;2023-08-01T14:38:56;22.40;99.90
2577;DHT22;1298;51.252;6.802;2023-08-01T14:41:43;23.20;99.90
2577;DHT22;1298;51.252;6.802;2023-08-01T14:44:29;23.70;99.90
2577;DHT22;1298;51.252;6.802;2023-08-01T14:47:14;24.00;99.90
2577;DHT22;1298;51.252;6.802;2023-08-01T14:50:00;24.00;99.90
2577;DHT22;1298;51.252;6.802;2023-08-01T14:52:46;24.30;99.90
2577;DHT22;1298;51.252;6.802;2023-08-01T14:55:31;24.80;99.90
2577;DHT22;1298;51.252;6.802;2023-08-01T14:58:18;25.60;99.90
2577;DHT22;1298;51.252;6.802;2023-08-01T15:01:04;25.60;99.90
2577;DHT22;1298;51.252;6.802;2023-08-01T15:03:49;25.40;99.90
2577;DHT22;1298;51.252;6.802;2023-08-01T15:06:35;24.50;99.90
2577;DHT22;1298;51.252;6.802;2023-08-01T15:09:21;24.50;99.90
2577;DHT22;1298;51.252;6.802;2023-08-01T15:12:08;24.60;99.90
2577;DHT22;1298;51.252;6.802;2023-08-01T15:14:55;25.20;99.90
2577;DHT22;1298;51.252;6.802;2023-08-01T15:17:41;26.10;99.90
2577;DHT22;1298;51.252;6.802;2023-08-01T15:20:26;26.80;99.90
2577;DHT22;1298;51.252;6.802;2023-08-01T15:23:12;26.90;99.90
2577;DHT22;1298;51.252;6.802;2023-08-01T15:25:58;26.10;99.90
2577;DHT22;1298;51.252;6.802;2023-08-01T15:28:44;25.80;99.90
2577;DHT22;1298;51.252;6.802;2023-08-01T15:31:31;25.10;99.90
2577;DHT22;1298;51.252;6.802;2023-08-01T15:34:21;24.70;99.90
2577;DHT22;1298;51.252;6.802;2023-08-01T15:37:07;24.50;99.90
2577;DHT22;1298;51.252;6.802;2023-08-01T15:39:53;25.10;99.90
2577;DHT22;1298;51.252;6.802;2023-08-01T15:42:39;26.30;99.90
2577;DHT22;1298;51.252;6.802;2023-08-01T15:45:24;26.00;99.90
2577;DHT22;1298;51.252;6.802;2023-08-01T15:48:14;25.70;99.90
2577;DHT22;1298;51.252;6.802;2023-08-01T15:51:02;24.90;99.90
2577;DHT22;1298;51.252;6.802;2023-08-01T15:53:48;24.20;99.90
2577;DHT22;1298;51.252;6.802;2023-08-01T15:59:02;22.50;99.90
2577;DHT22;1298;51.252;6.802;2023-08-01T16:01:47;22.10;99.90
2577;DHT22;1298;51.252;6.802;2023-08-01T16:04:34;22.20;99.90
2577;DHT22;1298;51.252;6.802;2023-08-01T16:07:20;22.10;99.90
2577;DHT22;1298;51.252;6.802;2023-08-01T16:10:06;22.50;99.90
2577;DHT22;1298;51.252;6.802;2023-08-01T16:12:52;22.70;99.90
2577;DHT22;1298;51.252;6.802;2023-08-01T16:15:39;23.70;99.90
2577;DHT22;1298;51.252;6.802;2023-08-01T16:18:25;24.40;99.90
2577;DHT22;1298;51.252;6.802;2023-08-01T16:21:11;24.80;99.90
2577;DHT22;1298;51.252;6.802;2023-08-01T16:23:57;24.40;99.90
2577;DHT22;1298;51.252;6.802;2023-08-01T16:26:44;24.60;99.90
2577;DHT22;1298;51.252;6.802;2023-08-01T16:29:30;24.70;99.90
2577;DHT22;1298;51.252;6.802;2023-08-01T16:32:16;24.20;99.90
2577;DHT22;1298;51.252;6.802;2023-08-01T16:35:01;24.40;99.90
2577;DHT22;1298;51.252;6.802;2023-08-01T16:37:48;24.80;99.90
2577;DHT22;1298;51.252;6.802;2023-08-01T16:40:34;24.70;99.90
2577;DHT22;1298;51.252;6.802;2023-08-01T16:43:20;24.60;99.90
2577;DHT22;1298;51.252;6.802;2023-08-01T16:46:05;24.70;99.90
2577;DHT22;1298;51.252;6.802;2023-08-01T16:48:51;24.30;99.90
2577;DHT22;1298;51.252;6.802;2023-08-01T16:51:37;24.20;99.90
2577;DHT22;1298;51.252;6.802;2023-08-01T16:54:24;24.40;99.90
2577;DHT22;1298;51.252;6.802;2023-08-01T16:57:09;24.80;99.90
2577;DHT22;1298;51.252;6.802;2023-08-01T16:59:55;24.80;99.90
2577;DHT22;1298;51.252;6.802;2023-08-01T17:02:41;24.60;99.90
2577;DHT22;1298;51.252;6.802;2023-08-01T17:05:27;24.00;99.90
2577;DHT22;1298;51.252;6.802;2023-08-01T17:08:12;23.20;99.90
2577;DHT22;1298;51.252;6.802;2023-08-01T17:11:05;22.30;99.90
2577;DHT22;1298;51.252;6.802;2023-08-01T17:13:51;22.50;99.90
2577;DHT22;1298;51.252;6.802;2023-08-01T17:16:36;22.40;99.90
2577;DHT22;1298;51.252;6.802;2023-08-01T17:19:22;22.30;99.90
2577;DHT22;1298;51.252;6.802;2023-08-01T17:22:08;22.30;99.90
2577;DHT22;1298;51.252;6.802;2023-08-01T17:24:53;22.10;99.90
2577;DHT22;1298;51.252;6.802;2023-08-01T17:27:40;21.70;99.90
2577;DHT22;1298;51.252;6.802;2023-08-01T17:30:26;21.30;99.90
2577;DHT22;1298;51.252;6.802;2023-08-01T17:33:11;21.10;99.90
2577;DHT22;1298;51.252;6.802;2023-08-01T17:35:57;20.90;99.90
2577;DHT22;1298;51.252;6.802;2023-08-01T17:38:43;20.70;99.90
2577;DHT22;1298;51.252;6.802;2023-08-01T17:41:29;20.70;99.90
2577;DHT22;1298;51.252;6.802;2023-08-01T17:44:16;20.70;99.90
2577;DHT22;1298;51.252;6.802;2023-08-01T17:47:02;20.70;99.90
2577;DHT22;1298;51.252;6.802;2023-08-01T17:49:48;20.90;99.90
2577;DHT22;1298;51.252;6.802;2023-08-01T17:52:33;20.90;99.90
2577;DHT22;1298;51.252;6.802;2023-08-01T17:55:19;20.80;99.90
2577;DHT22;1298;51.252;6.802;2023-08-01T17:58:05;20.70;99.90
2577;DHT22;1298;51.252;6.802;2023-08-01T18:00:52;21.10;99.90
2577;DHT22;1298;51.252;6.802;2023-08-01T18:03:38;21.60;99.90
2577;DHT22;1298;51.252;6.802;2023-08-01T18:06:23;22.00;99.90
2577;DHT22;1298;51.252;6.802;2023-08-01T18:09:09;21.70;99.90